createdAt,value
2017-08-31T00:01:29.169Z,90.20
2017-08-31T00:03:56.946Z,90.20
2017-08-31T00:06:24.737Z,90.30
2017-08-31T00:08:52.470Z,90.20
2017-08-31T00:11:20.238Z,90.20
2017-08-31T00:13:47.974Z,90.20
2017-08-31T00:16:15.690Z,90.00
2017-08-31T00:18:43.463Z,90.00
2017-08-31T00:21:11.206Z,90.20
2017-08-31T00:23:38.934Z,90.20
2017-08-31T00:26:06.668Z,90.10
2017-08-31T00:28:34.410Z,90.00
2017-08-31T00:31:03.742Z,90.00
2017-08-31T00:33:31.484Z,90.00
2017-08-31T00:35:59.238Z,89.70
2017-08-31T00:38:27.002Z,89.90
2017-08-31T00:40:54.770Z,89.90
2017-08-31T00:43:22.517Z,90.10
2017-08-31T00:45:50.347Z,89.40
2017-08-31T00:48:18.089Z,89.50
2017-08-31T00:50:45.895Z,89.40
2017-08-31T00:53:13.691Z,89.70
2017-08-31T00:55:41.469Z,89.70
2017-08-31T00:58:09.214Z,89.60
2017-08-31T01:00:38.602Z,89.60
2017-08-31T01:03:06.374Z,89.50
2017-08-31T01:05:34.110Z,89.80
2017-08-31T01:08:01.832Z,90.00
2017-08-31T01:10:29.563Z,89.70
2017-08-31T01:12:57.295Z,89.90
2017-08-31T01:15:25.025Z,90.00
2017-08-31T01:17:52.750Z,90.20
2017-08-31T01:20:20.532Z,90.00
2017-08-31T01:22:48.307Z,90.10
2017-08-31T01:25:16.095Z,90.10
2017-08-31T01:27:43.845Z,90.20
2017-08-31T01:30:11.596Z,90.40
2017-08-31T01:32:39.383Z,90.30
2017-08-31T01:35:07.169Z,90.40
2017-08-31T01:37:34.958Z,90.50
2017-08-31T01:40:02.754Z,90.40
2017-08-31T01:48:17.058Z,90.50
2017-08-31T01:50:44.830Z,90.60
2017-08-31T01:53:12.605Z,90.50
2017-08-31T01:55:40.363Z,90.40
2017-08-31T01:58:08.109Z,90.60
2017-08-31T02:00:35.915Z,90.60
2017-08-31T02:03:03.678Z,90.60
2017-08-31T02:05:31.433Z,90.90
2017-08-31T02:07:59.166Z,90.90
2017-08-31T02:10:26.937Z,91.10
2017-08-31T02:12:54.662Z,91.10
2017-08-31T02:15:22.375Z,91.10
2017-08-31T02:32:21.417Z,90.90
2017-08-31T02:34:49.194Z,90.90
2017-08-31T02:37:16.926Z,91.00
2017-08-31T02:39:44.650Z,90.90
2017-08-31T02:42:12.387Z,90.90
2017-08-31T02:44:40.122Z,90.90
2017-08-31T02:47:07.834Z,91.00
2017-08-31T02:49:35.550Z,91.00
2017-08-31T02:52:03.283Z,91.20
2017-08-31T02:54:31.006Z,91.10
2017-08-31T02:56:58.727Z,91.20
2017-08-31T02:59:26.446Z,91.20
2017-08-31T03:01:54.295Z,91.10
2017-08-31T03:04:22.011Z,91.10
2017-08-31T03:06:49.731Z,91.10
2017-08-31T03:09:17.442Z,91.00
2017-08-31T03:11:45.155Z,91.10
2017-08-31T03:14:12.886Z,91.20
2017-08-31T03:16:40.605Z,91.20
2017-08-31T03:19:08.316Z,91.20
2017-08-31T03:21:36.026Z,91.10
2017-08-31T03:24:03.759Z,91.20
2017-08-31T03:26:31.475Z,91.50
2017-08-31T03:28:59.196Z,91.60
2017-08-31T03:31:26.918Z,91.80
2017-08-31T03:33:54.639Z,91.90
2017-08-31T03:36:22.357Z,92.00
2017-08-31T03:38:50.074Z,92.20
2017-08-31T03:41:17.788Z,92.20
2017-08-31T03:43:45.502Z,92.30
2017-08-31T03:46:13.223Z,92.60
2017-08-31T03:48:40.954Z,92.70
2017-08-31T03:51:08.681Z,92.60
2017-08-31T03:53:36.402Z,93.00
2017-08-31T03:56:04.138Z,93.10
2017-08-31T03:58:31.846Z,93.10
2017-08-31T04:00:59.568Z,93.00
2017-08-31T04:03:27.278Z,92.90
2017-08-31T04:05:54.990Z,92.90
2017-08-31T04:08:22.698Z,93.00
2017-08-31T04:10:50.415Z,92.90
2017-08-31T04:13:18.130Z,92.90
2017-08-31T04:15:45.865Z,93.00
2017-08-31T04:18:13.594Z,93.00
2017-08-31T04:20:41.311Z,93.00
2017-08-31T04:23:09.019Z,93.20
2017-08-31T04:25:47.361Z,93.10
2017-08-31T04:28:15.077Z,93.20
2017-08-31T04:30:42.791Z,93.20
2017-08-31T04:33:10.519Z,93.00
2017-08-31T04:35:38.295Z,93.00
2017-08-31T04:38:08.578Z,92.90
2017-08-31T04:40:36.329Z,92.90
2017-08-31T04:43:04.045Z,92.80
2017-08-31T04:45:31.768Z,93.00
2017-08-31T04:47:59.492Z,92.90
2017-08-31T04:50:27.234Z,92.90
2017-08-31T04:52:54.955Z,93.00
2017-08-31T04:55:22.686Z,93.00
2017-08-31T04:57:50.488Z,93.20
2017-08-31T05:00:18.252Z,93.40
2017-08-31T05:02:46.987Z,93.60
2017-08-31T05:05:14.757Z,94.10
2017-08-31T05:07:44.089Z,94.60
2017-08-31T05:10:11.861Z,94.70
2017-08-31T05:12:41.990Z,95.00
2017-08-31T05:15:09.750Z,94.90
2017-08-31T05:17:37.553Z,95.10
2017-08-31T05:20:05.319Z,95.00
2017-08-31T05:22:33.079Z,95.20
2017-08-31T05:25:00.863Z,95.20
2017-08-31T05:27:29.626Z,95.00
2017-08-31T05:29:58.495Z,95.10
2017-08-31T05:32:26.290Z,95.10
2017-08-31T05:34:56.236Z,95.30
2017-08-31T05:37:26.350Z,95.60
2017-08-31T05:39:55.468Z,95.40
2017-08-31T05:42:23.250Z,95.60
2017-08-31T05:44:51.001Z,95.80
2017-08-31T05:47:37.997Z,95.80
2017-08-31T05:52:43.093Z,95.80
2017-08-31T05:55:11.002Z,95.90
2017-08-31T05:57:38.818Z,95.70
2017-08-31T06:00:06.607Z,95.70
2017-08-31T06:02:36.227Z,95.60
2017-08-31T06:05:05.127Z,95.80
2017-08-31T06:07:33.001Z,95.60
2017-08-31T06:10:00.754Z,95.70
2017-08-31T06:12:30.566Z,95.70
2017-08-31T06:14:58.569Z,95.60
2017-08-31T06:17:28.927Z,95.70
2017-08-31T06:19:56.670Z,95.80
2017-08-31T06:22:24.407Z,95.90
2017-08-31T06:24:52.130Z,96.10
2017-08-31T06:27:19.858Z,96.10
2017-08-31T06:29:47.595Z,96.10
2017-08-31T06:32:15.982Z,96.10
2017-08-31T06:34:46.154Z,96.20
2017-08-31T06:37:13.903Z,96.40
2017-08-31T06:39:42.878Z,96.40
2017-08-31T06:42:12.526Z,96.60
2017-08-31T06:44:42.538Z,96.70
2017-08-31T06:47:10.335Z,96.60
2017-08-31T06:49:38.071Z,96.80
2017-08-31T06:52:05.798Z,96.60
2017-08-31T06:54:34.402Z,96.70
2017-08-31T06:57:02.927Z,96.70
2017-08-31T06:59:33.847Z,96.60
2017-08-31T07:02:01.640Z,96.60
2017-08-31T07:04:31.764Z,96.40
2017-08-31T07:07:06.848Z,96.60
2017-08-31T07:09:35.892Z,96.80
2017-08-31T07:12:03.610Z,96.80
2017-08-31T07:14:31.336Z,96.80
2017-08-31T07:17:02.819Z,96.50
2017-08-31T07:19:31.543Z,96.70
2017-08-31T07:22:05.155Z,96.10
2017-08-31T07:24:33.502Z,96.10
2017-08-31T07:27:02.479Z,95.50
2017-08-31T07:29:31.474Z,95.50
2017-08-31T07:32:00.282Z,95.50
2017-08-31T07:34:28.565Z,95.40
2017-08-31T07:36:56.316Z,95.20
2017-08-31T07:39:29.231Z,95.40
2017-08-31T07:41:58.716Z,95.40
2017-08-31T07:44:28.284Z,95.20
2017-08-31T07:46:56.390Z,95.20
2017-08-31T07:49:24.106Z,95.10
2017-08-31T07:51:51.819Z,94.40
2017-08-31T07:54:20.208Z,94.60
2017-08-31T07:56:47.929Z,94.10
2017-08-31T07:59:16.262Z,93.10
2017-08-31T08:01:44.717Z,93.00
2017-08-31T08:04:12.470Z,92.30
2017-08-31T08:06:40.195Z,92.30
2017-08-31T08:09:07.920Z,91.40
2017-08-31T08:11:35.638Z,91.80
2017-08-31T08:14:03.379Z,91.60
2017-08-31T08:16:31.350Z,92.10
2017-08-31T08:19:01.263Z,91.60
2017-08-31T08:21:30.050Z,90.90
2017-08-31T08:23:58.559Z,91.20
2017-08-31T08:26:26.296Z,91.40
2017-08-31T08:28:54.020Z,91.70
2017-08-31T08:31:21.732Z,92.50
2017-08-31T08:33:49.483Z,92.60
2017-08-31T08:36:17.211Z,92.60
2017-08-31T08:38:44.934Z,91.00
2017-08-31T08:41:12.670Z,88.50
2017-08-31T08:43:40.420Z,87.10
2017-08-31T08:46:08.167Z,85.80
2017-08-31T08:48:35.924Z,83.80
2017-08-31T08:51:03.690Z,78.70
2017-08-31T08:53:31.393Z,80.50
2017-08-31T08:55:59.102Z,81.10
2017-08-31T08:58:26.808Z,81.10
2017-08-31T09:00:54.527Z,81.20
2017-08-31T09:03:22.237Z,79.30
2017-08-31T09:05:49.949Z,79.00
2017-08-31T09:08:17.692Z,78.50
2017-08-31T09:10:45.426Z,77.30
2017-08-31T09:13:13.148Z,78.00
2017-08-31T09:15:40.859Z,78.50
2017-08-31T09:18:08.614Z,77.30
2017-08-31T09:20:36.330Z,75.90
2017-08-31T09:23:04.066Z,77.30
2017-08-31T09:25:31.807Z,77.90
2017-08-31T09:27:59.575Z,78.10
2017-08-31T09:30:27.330Z,78.70
2017-08-31T09:32:55.045Z,78.90
2017-08-31T09:35:22.754Z,78.80
2017-08-31T09:37:50.483Z,77.50
2017-08-31T09:40:18.199Z,76.90
2017-08-31T09:42:45.908Z,75.40
2017-08-31T09:45:13.622Z,76.50
2017-08-31T09:47:41.352Z,74.80
2017-08-31T09:50:09.110Z,74.20
2017-08-31T09:52:36.831Z,74.60
2017-08-31T09:55:04.554Z,74.40
2017-08-31T09:57:32.269Z,74.70
2017-08-31T09:59:59.982Z,75.00
2017-08-31T10:02:27.688Z,74.50
2017-08-31T10:04:55.414Z,74.70
2017-08-31T10:07:23.132Z,73.20
2017-08-31T10:09:50.857Z,76.00
2017-08-31T10:12:18.594Z,73.40
2017-08-31T10:14:46.310Z,72.60
2017-08-31T10:17:14.089Z,72.60
2017-08-31T10:19:41.818Z,71.30
2017-08-31T10:22:09.547Z,73.30
2017-08-31T10:24:37.262Z,74.40
2017-08-31T10:27:05.036Z,72.70
2017-08-31T10:29:32.794Z,71.50
2017-08-31T10:32:00.553Z,72.30
2017-08-31T10:34:28.326Z,73.40
2017-08-31T10:36:56.089Z,75.60
2017-08-31T10:39:23.834Z,74.00
2017-08-31T10:41:51.583Z,72.90
2017-08-31T10:44:19.329Z,73.30
2017-08-31T10:46:47.082Z,73.60
2017-08-31T10:49:14.851Z,73.20
2017-08-31T10:51:42.612Z,73.50
2017-08-31T10:54:10.382Z,74.70
2017-08-31T10:56:38.167Z,73.80
2017-08-31T10:59:05.962Z,74.50
2017-08-31T11:01:33.730Z,74.40
2017-08-31T11:04:01.502Z,73.00
2017-08-31T11:06:29.269Z,72.40
2017-08-31T11:08:57.025Z,73.60
2017-08-31T11:11:24.786Z,72.40
2017-08-31T11:13:52.597Z,74.00
2017-08-31T11:16:20.375Z,71.80
2017-08-31T11:18:48.135Z,71.60
2017-08-31T11:21:15.873Z,71.20
2017-08-31T11:23:43.626Z,71.10
2017-08-31T11:26:11.386Z,70.30
2017-08-31T11:28:39.329Z,71.70
2017-08-31T11:31:06.998Z,72.70
2017-08-31T11:33:34.827Z,72.80
2017-08-31T11:36:02.576Z,71.60
2017-08-31T11:38:30.287Z,72.20
2017-08-31T11:40:57.992Z,70.90
2017-08-31T11:43:25.712Z,72.10
2017-08-31T11:45:53.424Z,70.80
2017-08-31T11:48:21.146Z,73.50
2017-08-31T11:50:48.862Z,73.50
2017-08-31T11:53:16.599Z,72.80
2017-08-31T11:55:44.329Z,73.20
2017-08-31T11:58:12.050Z,71.30
2017-08-31T12:00:39.797Z,72.10
2017-08-31T12:03:07.519Z,72.50
2017-08-31T12:05:35.278Z,73.80
2017-08-31T12:08:02.986Z,75.30
2017-08-31T12:10:30.726Z,76.40
2017-08-31T12:12:58.441Z,75.10
2017-08-31T12:15:26.165Z,74.60
2017-08-31T12:17:53.891Z,74.70
2017-08-31T12:20:21.597Z,72.60
2017-08-31T12:22:49.356Z,73.20
2017-08-31T12:25:17.079Z,71.00
2017-08-31T12:27:44.786Z,70.70
2017-08-31T12:30:12.503Z,70.70
2017-08-31T12:32:40.234Z,69.60
2017-08-31T12:35:07.963Z,67.30
2017-08-31T12:37:35.692Z,68.30
2017-08-31T12:40:03.402Z,70.00
2017-08-31T12:42:31.157Z,70.40
2017-08-31T12:44:58.885Z,72.00
2017-08-31T12:47:26.609Z,73.30
2017-08-31T12:49:55.127Z,74.40
2017-08-31T12:52:22.864Z,74.40
2017-08-31T12:54:50.586Z,75.80
2017-08-31T12:57:18.312Z,76.60
2017-08-31T12:59:46.028Z,77.50
2017-08-31T13:02:13.754Z,76.40
2017-08-31T13:04:41.480Z,72.60
2017-08-31T13:07:09.198Z,70.80
2017-08-31T13:09:36.915Z,72.50
2017-08-31T13:12:04.631Z,74.00
2017-08-31T13:14:32.349Z,74.20
2017-08-31T13:17:00.078Z,73.80
2017-08-31T13:22:01.642Z,71.70
2017-08-31T13:24:29.377Z,71.10
2017-08-31T13:26:57.098Z,69.80
2017-08-31T13:29:24.869Z,69.50
2017-08-31T13:31:52.589Z,70.10
2017-08-31T13:34:20.346Z,69.30
2017-08-31T13:36:48.103Z,70.60
2017-08-31T13:39:15.809Z,71.80
2017-08-31T13:41:43.551Z,72.20
2017-08-31T13:44:11.290Z,72.40
2017-08-31T13:46:39.009Z,72.20
2017-08-31T13:49:06.772Z,72.70
2017-08-31T13:51:34.547Z,72.20
2017-08-31T13:54:02.273Z,72.60
2017-08-31T13:56:29.997Z,70.50
2017-08-31T13:58:57.727Z,70.80
2017-08-31T14:01:25.459Z,71.10
2017-08-31T14:03:53.201Z,70.70
2017-08-31T14:06:20.969Z,69.80
2017-08-31T14:08:48.695Z,70.70
2017-08-31T14:11:16.415Z,70.60
2017-08-31T14:13:44.147Z,71.10
2017-08-31T14:16:11.868Z,73.00
2017-08-31T14:18:39.612Z,72.00
2017-08-31T14:21:07.340Z,72.60
2017-08-31T14:23:35.073Z,72.50
2017-08-31T14:26:02.806Z,72.20
2017-08-31T14:28:30.518Z,71.60
2017-08-31T14:30:58.245Z,71.70
2017-08-31T14:33:25.971Z,72.70
2017-08-31T14:35:53.716Z,72.30
2017-08-31T14:38:21.440Z,72.40
2017-08-31T14:40:49.175Z,70.60
2017-08-31T14:43:16.925Z,72.20
2017-08-31T14:45:44.662Z,72.00
2017-08-31T14:48:12.394Z,71.40
2017-08-31T14:50:40.117Z,71.10
2017-08-31T14:53:07.846Z,70.40
2017-08-31T14:55:35.587Z,72.10
2017-08-31T14:58:03.298Z,72.00
2017-08-31T15:00:31.034Z,71.70
2017-08-31T15:02:58.789Z,73.00
2017-08-31T15:05:26.563Z,73.20
2017-08-31T15:07:54.307Z,72.00
2017-08-31T15:10:22.039Z,72.10
2017-08-31T15:12:49.803Z,71.70
2017-08-31T15:15:17.520Z,70.80
2017-08-31T15:22:01.998Z,72.00
2017-08-31T15:24:29.764Z,73.70
2017-08-31T15:26:57.492Z,74.10
2017-08-31T15:29:28.002Z,73.50
2017-08-31T15:31:55.733Z,73.90
2017-08-31T15:34:23.503Z,74.20
2017-08-31T15:36:51.366Z,74.10
2017-08-31T15:39:19.111Z,73.40
2017-08-31T15:41:53.339Z,73.10
2017-08-31T15:45:55.872Z,70.90
2017-08-31T15:48:23.595Z,73.40
2017-08-31T15:50:51.349Z,73.90
2017-08-31T15:53:19.087Z,72.70
2017-08-31T15:55:46.820Z,73.70
2017-08-31T15:58:14.591Z,72.20
2017-08-31T16:00:42.417Z,70.90
2017-08-31T16:03:21.748Z,71.30
2017-08-31T16:08:28.935Z,72.30
2017-08-31T16:11:08.379Z,73.20
2017-08-31T16:13:36.191Z,72.70
2017-08-31T16:16:03.941Z,72.60
2017-08-31T16:21:07.395Z,73.30
2017-08-31T16:23:42.097Z,73.30
2017-08-31T16:26:09.859Z,73.60
2017-08-31T16:28:40.522Z,73.90
2017-08-31T16:31:08.250Z,73.40
2017-08-31T16:33:35.972Z,74.90
2017-08-31T16:36:03.728Z,74.80
2017-08-31T16:38:31.458Z,74.30
2017-08-31T16:40:59.206Z,74.30
2017-08-31T16:43:26.968Z,74.50
2017-08-31T16:45:54.691Z,74.50
2017-08-31T16:48:22.458Z,74.20
2017-08-31T16:50:50.190Z,74.60
2017-08-31T16:53:17.919Z,75.10
2017-08-31T16:55:45.647Z,74.40
2017-08-31T16:58:13.369Z,75.50
2017-08-31T17:00:41.106Z,74.90
2017-08-31T17:03:08.822Z,74.20
2017-08-31T17:05:36.545Z,73.70
2017-08-31T17:08:04.265Z,73.40
2017-08-31T17:10:31.977Z,74.40
2017-08-31T17:12:59.706Z,73.20
2017-08-31T17:15:27.418Z,73.30
2017-08-31T17:17:55.178Z,73.80
2017-08-31T17:20:23.544Z,73.20
2017-08-31T17:22:51.274Z,72.60
2017-08-31T17:25:19.050Z,70.70
2017-08-31T17:27:46.790Z,69.50
2017-08-31T17:30:14.558Z,70.50
2017-08-31T17:32:42.287Z,71.10
2017-08-31T17:35:10.058Z,70.50
2017-08-31T17:37:37.822Z,69.80
2017-08-31T17:40:05.589Z,69.20
2017-08-31T17:42:33.392Z,69.90
2017-08-31T17:45:01.105Z,69.30
2017-08-31T17:47:29.762Z,70.20
2017-08-31T17:49:57.531Z,71.60
2017-08-31T17:52:25.254Z,72.70
2017-08-31T17:54:52.991Z,73.20
2017-08-31T17:57:20.705Z,73.50
2017-08-31T17:59:48.474Z,74.40
2017-08-31T18:02:16.240Z,73.70
2017-08-31T18:04:43.950Z,73.80
2017-08-31T18:07:11.692Z,73.80
2017-08-31T18:09:39.410Z,74.30
2017-08-31T18:12:07.187Z,74.70
2017-08-31T18:14:34.920Z,74.90
2017-08-31T18:17:02.735Z,75.00
2017-08-31T18:19:30.479Z,75.30
2017-08-31T18:21:58.237Z,76.00
2017-08-31T18:24:37.969Z,76.00
2017-08-31T18:27:05.708Z,76.50
2017-08-31T18:29:33.433Z,76.40
2017-08-31T18:32:01.165Z,76.40
2017-08-31T18:34:28.897Z,76.70
2017-08-31T18:36:56.651Z,77.30
2017-08-31T18:39:37.707Z,77.90
2017-08-31T18:42:08.390Z,77.90
2017-08-31T18:44:36.137Z,78.10
2017-08-31T18:47:03.897Z,79.40
2017-08-31T18:49:31.655Z,82.80
2017-08-31T18:57:55.787Z,83.20
2017-08-31T19:06:10.950Z,83.80
2017-08-31T19:08:41.078Z,84.30
2017-08-31T19:11:08.785Z,84.40
2017-08-31T19:13:36.499Z,84.30
2017-08-31T19:16:04.236Z,84.70
2017-08-31T19:18:31.976Z,84.60
2017-08-31T19:20:59.702Z,85.00
2017-08-31T19:23:27.417Z,85.10
2017-08-31T19:25:59.157Z,85.40
2017-08-31T19:28:32.459Z,85.90
2017-08-31T19:31:04.833Z,85.90
2017-08-31T19:33:32.729Z,85.70
2017-08-31T19:36:00.738Z,85.20
2017-08-31T19:38:28.457Z,84.80
2017-08-31T19:40:56.205Z,84.90
2017-08-31T19:43:23.927Z,84.80
2017-08-31T19:45:52.500Z,84.70
2017-08-31T19:48:20.220Z,85.10
2017-08-31T19:50:47.946Z,85.20
2017-08-31T19:53:15.660Z,84.70
2017-08-31T19:55:43.427Z,84.30
2017-08-31T19:58:11.486Z,84.40
2017-08-31T20:00:39.240Z,84.50
2017-08-31T20:03:06.959Z,84.40
2017-08-31T20:05:34.684Z,84.50
2017-08-31T20:08:02.389Z,84.40
2017-08-31T20:10:30.417Z,84.40
2017-08-31T20:12:58.179Z,84.80
2017-08-31T20:15:25.897Z,84.80
2017-08-31T20:17:53.616Z,85.30
2017-08-31T20:20:21.335Z,85.00
2017-08-31T20:22:49.094Z,84.90
2017-08-31T20:25:16.851Z,84.70
2017-08-31T20:27:44.568Z,84.80
2017-08-31T20:30:12.303Z,85.00
2017-08-31T20:32:40.018Z,85.00
2017-08-31T20:35:08.911Z,85.10
2017-08-31T20:37:38.352Z,85.50
2017-08-31T20:40:07.062Z,84.80
2017-08-31T20:42:40.431Z,84.70
2017-08-31T20:45:10.386Z,84.40
2017-08-31T20:47:47.553Z,84.60
2017-08-31T20:50:17.633Z,84.80
2017-08-31T20:52:46.346Z,84.70
2017-08-31T20:55:15.789Z,85.00
2017-08-31T20:57:47.375Z,84.80
2017-08-31T21:00:15.467Z,84.60
2017-08-31T21:02:45.872Z,84.10
2017-08-31T21:05:20.440Z,84.20
2017-08-31T21:07:48.332Z,84.10
2017-08-31T21:10:19.499Z,84.30
2017-08-31T21:12:47.506Z,84.40
2017-08-31T21:15:15.853Z,84.10
2017-08-31T21:17:45.172Z,84.10
2017-08-31T21:22:51.138Z,84.30
2017-08-31T21:28:03.595Z,84.30
2017-08-31T21:30:33.217Z,84.90
2017-08-31T21:33:03.205Z,84.40
2017-08-31T21:35:33.793Z,84.40
2017-08-31T21:38:04.021Z,84.30
2017-08-31T21:40:31.820Z,84.80
2017-08-31T21:45:41.149Z,85.30
2017-08-31T21:48:08.934Z,85.70
2017-08-31T21:50:38.479Z,87.60
2017-08-31T21:53:08.117Z,87.10
2017-08-31T21:55:36.908Z,87.10
2017-08-31T21:58:08.706Z,87.50
2017-08-31T22:00:43.273Z,87.70
2017-08-31T22:03:11.971Z,88.40
2017-08-31T22:05:40.961Z,88.50
2017-08-31T22:08:12.243Z,88.70
2017-08-31T22:10:41.439Z,88.60
2017-08-31T22:13:10.094Z,88.40
2017-08-31T22:15:44.238Z,88.30
2017-08-31T22:18:20.462Z,88.20
2017-08-31T22:20:51.336Z,88.20
2017-08-31T22:25:54.349Z,89.80
2017-08-31T22:28:23.528Z,89.60
2017-08-31T22:30:52.739Z,89.60
2017-08-31T22:33:20.653Z,89.60
2017-08-31T22:35:51.031Z,90.30
2017-08-31T22:38:22.553Z,90.60
2017-08-31T22:40:51.343Z,90.40
2017-08-31T22:43:24.562Z,90.30
2017-08-31T22:45:53.281Z,90.10
2017-08-31T22:48:32.491Z,90.00
2017-08-31T22:51:02.472Z,90.00
2017-08-31T22:53:33.805Z,90.00
2017-08-31T22:56:02.319Z,89.70
2017-08-31T22:58:42.094Z,89.70
2017-08-31T23:01:09.867Z,89.90
2017-08-31T23:03:39.434Z,90.00
2017-08-31T23:06:07.991Z,90.30
2017-08-31T23:08:37.613Z,90.20
2017-08-31T23:11:05.425Z,90.10
2017-08-31T23:13:33.143Z,90.00
2017-08-31T23:16:03.744Z,90.00
2017-08-31T23:18:32.375Z,90.60
2017-08-31T23:21:02.002Z,90.70
2017-08-31T23:23:32.502Z,90.70
2017-08-31T23:26:01.330Z,90.40
2017-08-31T23:28:34.686Z,90.40
2017-08-31T23:31:03.227Z,90.40
2017-08-31T23:33:35.243Z,90.30
2017-08-31T23:36:11.478Z,90.20
2017-08-31T23:38:39.890Z,90.20
2017-08-31T23:41:09.360Z,89.70
2017-08-31T23:43:39.250Z,89.80
2017-08-31T23:46:10.136Z,90.70
2017-08-31T23:48:39.203Z,90.50
2017-08-31T23:51:09.402Z,90.20
2017-08-31T23:53:38.801Z,90.30
2017-08-31T23:56:13.211Z,90.20
2017-08-31T23:58:49.134Z,90.10
